createdAt,value
2023-05-03T00:01:33.427Z,1.90
2023-05-03T00:04:24.326Z,2.10
2023-05-03T00:06:58.727Z,2.10
2023-05-03T00:10:07.452Z,2.40
2023-05-03T00:13:15.294Z,2.20
2023-05-03T00:15:55.173Z,2.20
2023-05-03T00:19:37.409Z,3.10
2023-05-03T00:22:31.982Z,2.90
2023-05-03T00:25:05.083Z,2.80
2023-05-03T00:27:39.859Z,1.90
2023-05-03T00:30:28.661Z,2.30
2023-05-03T00:33:20.580Z,2.40
2023-05-03T00:36:00.498Z,2.20
2023-05-03T00:38:37.254Z,2.00
2023-05-03T00:41:16.175Z,2.20
2023-05-03T00:43:57.335Z,1.70
2023-05-03T00:46:39.923Z,2.20
2023-05-03T00:49:12.270Z,2.00
2023-05-03T00:51:52.272Z,2.20
2023-05-03T00:54:31.154Z,1.90
2023-05-03T00:57:12.621Z,1.80
2023-05-03T00:59:46.905Z,2.00
2023-05-03T01:02:24.962Z,2.10
2023-05-03T01:04:59.408Z,2.00
2023-05-03T01:08:10.720Z,1.90
2023-05-03T01:11:15.510Z,2.40
2023-05-03T01:14:05.982Z,1.80
2023-05-03T01:16:54.115Z,1.70
2023-05-03T01:19:28.117Z,1.80
2023-05-03T01:22:47.344Z,1.60
2023-05-03T01:25:17.358Z,2.20
2023-05-03T01:27:55.583Z,1.90
2023-05-03T01:30:50.497Z,2.00
2023-05-03T01:34:43.930Z,1.70
2023-05-03T01:37:21.783Z,2.30
2023-05-03T01:40:06.365Z,2.70
2023-05-03T01:42:40.868Z,2.20
2023-05-03T01:50:14.970Z,2.10
2023-05-03T01:52:54.547Z,2.40
2023-05-03T01:55:30.472Z,2.00
2023-05-03T01:58:04.711Z,2.20
2023-05-03T02:00:46.813Z,2.40
2023-05-03T02:03:42.517Z,2.20
2023-05-03T02:06:29.495Z,2.00
2023-05-03T02:09:14.244Z,1.90
2023-05-03T02:12:17.597Z,2.20
2023-05-03T02:15:00.657Z,2.40
2023-05-03T02:17:51.747Z,2.10
2023-05-03T02:20:32.400Z,2.10
2023-05-03T02:23:09.698Z,2.80
2023-05-03T02:25:43.908Z,2.20
2023-05-03T02:28:34.073Z,2.00
2023-05-03T02:31:11.948Z,2.00
2023-05-03T02:34:28.310Z,1.70
2023-05-03T02:37:14.828Z,1.80
2023-05-03T02:42:09.680Z,1.90
2023-05-03T02:44:37.249Z,2.10
2023-05-03T02:47:04.657Z,1.80
2023-05-03T02:49:32.594Z,1.80
2023-05-03T02:51:59.881Z,1.80
2023-05-03T02:54:27.132Z,2.30
2023-05-03T02:56:59.341Z,1.80
2023-05-03T02:59:26.446Z,2.10
2023-05-03T03:01:54.107Z,2.30
2023-05-03T03:04:21.722Z,2.60
2023-05-03T03:06:49.063Z,2.70
2023-05-03T03:09:17.031Z,2.70
2023-05-03T03:11:44.883Z,2.70
2023-05-03T03:14:13.420Z,2.20
2023-05-03T03:16:41.431Z,2.70
2023-05-03T03:19:08.784Z,2.60
2023-05-03T03:21:37.510Z,2.70
2023-05-03T03:24:05.285Z,2.50
2023-05-03T03:26:32.737Z,2.60
2023-05-03T03:29:03.873Z,2.00
2023-05-03T03:34:01.883Z,2.20
2023-05-03T03:36:31.023Z,2.00
2023-05-03T03:38:58.356Z,2.20
2023-05-03T03:41:27.719Z,2.50
2023-05-03T03:43:55.923Z,1.90
2023-05-03T03:46:23.272Z,2.00
2023-05-03T03:48:51.246Z,1.70
2023-05-03T03:51:20.320Z,2.30
2023-05-03T03:53:48.128Z,2.30
2023-05-03T03:56:19.256Z,2.40
2023-05-03T03:58:47.712Z,2.80
2023-05-03T04:01:15.117Z,2.80
2023-05-03T04:03:46.562Z,3.00
2023-05-03T04:06:14.412Z,2.60
2023-05-03T04:08:44.648Z,2.70
2023-05-03T04:11:17.458Z,2.40
2023-05-03T04:13:49.964Z,3.20
2023-05-03T04:16:21.325Z,2.60
2023-05-03T04:18:50.266Z,2.30
2023-05-03T04:21:18.712Z,2.10
2023-05-03T04:23:52.735Z,1.90
2023-05-03T04:26:31.153Z,2.20
2023-05-03T04:29:04.729Z,2.80
2023-05-03T04:31:33.220Z,2.30
2023-05-03T04:34:03.879Z,2.00
2023-05-03T04:36:37.257Z,2.10
2023-05-03T04:39:50.381Z,2.00
2023-05-03T04:42:54.531Z,1.80
2023-05-03T04:46:28.186Z,2.40
2023-05-03T04:50:40.919Z,2.10
2023-05-03T04:53:37.083Z,1.90
2023-05-03T04:56:37.446Z,2.60
2023-05-03T04:59:32.510Z,1.70
2023-05-03T05:03:19.814Z,2.00
2023-05-03T05:06:38.525Z,1.80
2023-05-03T05:09:51.798Z,1.40
2023-05-03T05:16:45.259Z,1.70
2023-05-03T05:20:58.075Z,2.00
2023-05-03T05:23:51.135Z,1.90
2023-05-03T05:27:11.881Z,1.70
2023-05-03T05:33:55.503Z,2.30
2023-05-03T05:40:42.199Z,2.50
2023-05-03T05:43:55.206Z,1.60
2023-05-03T05:50:18.527Z,2.10
2023-05-03T05:54:44.513Z,1.70
2023-05-03T05:58:45.720Z,1.60
2023-05-03T06:08:51.979Z,2.30
2023-05-03T06:20:01.213Z,1.60
2023-05-03T06:27:16.227Z,1.90
2023-05-03T06:43:10.402Z,2.00
2023-05-03T06:54:33.321Z,2.50
2023-05-03T07:01:37.998Z,1.60
2023-05-03T07:08:03.916Z,1.80
2023-05-03T07:18:20.362Z,1.60
2023-05-03T07:21:30.558Z,1.40
2023-05-03T07:28:46.304Z,1.90
2023-05-03T07:32:17.945Z,2.10
2023-05-03T07:51:19.502Z,1.80
2023-05-03T07:59:37.907Z,1.90
2023-05-03T08:02:57.327Z,1.90
2023-05-03T08:07:00.678Z,2.40
2023-05-03T08:10:31.142Z,1.70
2023-05-03T08:14:05.012Z,1.70
2023-05-03T08:21:41.865Z,2.00
2023-05-03T08:29:08.605Z,1.80
2023-05-03T08:32:59.634Z,2.00
2023-05-03T08:36:20.188Z,2.20
2023-05-03T08:39:07.049Z,2.10
2023-05-03T08:41:59.731Z,1.70
2023-05-03T08:45:31.097Z,1.80
2023-05-03T08:48:31.720Z,1.50
2023-05-03T08:51:29.546Z,1.80
2023-05-03T08:54:47.189Z,1.70
2023-05-03T08:57:31.453Z,2.00
2023-05-03T09:00:14.113Z,1.10
2023-05-03T09:03:08.411Z,1.90
2023-05-03T09:09:08.232Z,1.40
2023-05-03T09:12:03.402Z,1.70
2023-05-03T09:19:28.199Z,1.90
2023-05-03T09:22:55.882Z,1.80
2023-05-03T09:30:51.807Z,1.30
2023-05-03T09:37:40.744Z,2.00
2023-05-03T09:41:16.766Z,1.60
2023-05-03T09:44:54.587Z,1.60
2023-05-03T09:47:59.075Z,1.40
2023-05-03T09:51:09.515Z,1.80
2023-05-03T09:59:24.294Z,1.50
2023-05-03T10:07:55.517Z,1.30
2023-05-03T10:10:40.142Z,1.50
2023-05-03T10:13:18.697Z,1.50
2023-05-03T10:35:18.336Z,1.30
2023-05-03T10:38:59.538Z,1.60
2023-05-03T10:46:41.993Z,1.30
2023-05-03T10:52:56.732Z,1.40
2023-05-03T11:00:44.886Z,1.60
2023-05-03T11:13:50.121Z,1.30
2023-05-03T11:17:14.813Z,1.40
2023-05-03T11:21:12.194Z,1.60
2023-05-03T11:23:55.080Z,1.40
2023-05-03T11:26:37.802Z,1.60
2023-05-03T11:34:58.908Z,1.30
2023-05-03T11:38:40.561Z,1.10
2023-05-03T11:41:47.849Z,1.30
2023-05-03T11:49:58.218Z,1.40
2023-05-03T11:57:48.000Z,1.20
2023-05-03T12:01:40.634Z,1.30
2023-05-03T12:04:45.623Z,0.90
2023-05-03T12:07:58.887Z,1.00
2023-05-03T12:16:34.383Z,1.30
2023-05-03T12:21:28.222Z,1.50
2023-05-03T12:44:48.245Z,1.10
2023-05-03T12:55:25.272Z,1.10
2023-05-03T12:58:49.927Z,1.30
2023-05-03T13:05:45.778Z,1.40
2023-05-03T13:18:22.936Z,1.50
2023-05-03T13:21:17.303Z,1.30
2023-05-03T13:24:19.319Z,1.30
2023-05-03T13:30:59.368Z,1.60
2023-05-03T16:59:03.021Z,1.50
2023-05-03T17:02:14.173Z,2.10
2023-05-03T17:05:29.737Z,2.30
2023-05-03T17:09:14.626Z,1.60
2023-05-03T17:22:15.706Z,2.00
2023-05-03T17:25:20.229Z,1.40
2023-05-03T17:33:49.951Z,3.10
2023-05-03T17:46:01.309Z,3.60
2023-05-03T17:48:58.123Z,3.20
2023-05-03T18:01:13.829Z,4.00
2023-05-03T18:04:44.462Z,4.30
2023-05-03T18:16:58.165Z,5.30
2023-05-03T18:38:44.480Z,4.20
2023-05-03T18:51:11.209Z,2.40
2023-05-03T18:58:58.151Z,2.30
2023-05-03T19:16:31.413Z,4.60
2023-05-03T19:19:31.864Z,4.70
2023-05-03T19:26:58.335Z,5.30
2023-05-03T19:38:43.755Z,4.00
2023-05-03T19:42:31.845Z,3.20
2023-05-03T19:46:21.904Z,3.90
2023-05-03T19:49:16.876Z,3.90
2023-05-03T19:52:08.767Z,4.50
2023-05-03T19:59:54.189Z,4.00
2023-05-03T20:13:12.298Z,2.30
2023-05-03T20:16:40.557Z,2.40
2023-05-03T20:27:50.260Z,2.40
2023-05-03T20:30:52.439Z,2.90
2023-05-03T20:34:53.149Z,2.70
2023-05-03T20:42:47.674Z,2.10
2023-05-03T20:45:48.335Z,2.10
2023-05-03T20:49:48.355Z,2.10
2023-05-03T20:53:31.897Z,2.30
2023-05-03T21:03:07.153Z,3.50
2023-05-03T21:10:47.197Z,2.00
2023-05-03T21:13:52.948Z,2.10
2023-05-03T21:16:47.687Z,2.20
2023-05-03T21:19:41.003Z,2.20
2023-05-03T21:22:33.724Z,1.80
2023-05-03T21:26:12.364Z,2.10
2023-05-03T21:29:57.704Z,2.40
2023-05-03T21:48:13.486Z,1.50
2023-05-03T21:51:33.474Z,1.50
2023-05-03T21:54:26.582Z,1.40
2023-05-03T21:57:23.199Z,1.50
2023-05-03T22:00:31.120Z,2.00
2023-05-03T22:03:23.289Z,2.00
2023-05-03T22:06:09.904Z,1.40
2023-05-03T22:09:04.378Z,1.80
2023-05-03T22:12:22.611Z,1.60
2023-05-03T22:15:12.790Z,1.60
2023-05-03T22:18:06.954Z,1.80
2023-05-03T22:20:48.359Z,1.90
2023-05-03T22:23:30.507Z,1.50
2023-05-03T22:26:11.051Z,2.60
2023-05-03T22:29:04.454Z,1.90
2023-05-03T22:32:16.004Z,1.60
2023-05-03T22:34:55.950Z,1.80
2023-05-03T22:37:50.962Z,1.80
2023-05-03T22:40:33.208Z,2.40
2023-05-03T22:43:12.068Z,2.20
2023-05-03T22:45:50.231Z,2.10
2023-05-03T22:48:36.585Z,1.70
2023-05-03T22:51:13.974Z,2.60
2023-05-03T22:54:05.290Z,1.80
2023-05-03T22:57:47.313Z,1.80
2023-05-03T23:01:03.077Z,2.20
2023-05-03T23:03:54.639Z,2.30
2023-05-03T23:07:01.705Z,2.30
2023-05-03T23:10:10.682Z,2.10
2023-05-03T23:13:14.616Z,2.00
2023-05-03T23:15:51.243Z,2.30
2023-05-03T23:18:28.679Z,2.10
2023-05-03T23:21:39.854Z,2.10
2023-05-03T23:24:13.677Z,2.00
2023-05-03T23:26:54.847Z,1.80
2023-05-03T23:29:32.323Z,1.90
2023-05-03T23:32:12.165Z,1.80
2023-05-03T23:34:53.703Z,1.80
2023-05-03T23:37:24.705Z,1.90
2023-05-03T23:40:01.626Z,1.70
2023-05-03T23:42:44.635Z,2.30
2023-05-03T23:45:28.260Z,1.80
2023-05-03T23:48:07.895Z,2.20
2023-05-03T23:50:41.774Z,1.90
2023-05-03T23:53:25.267Z,1.70
2023-05-03T23:55:59.906Z,2.10
2023-05-03T23:58:58.658Z,1.90
